sensor_id;sensor_type;location;lat;lon;timestamp;pressure;altitude;pressure_sealevel;temperature;humidity
81835;BME280;71272;52.166;4.498;2023-07-13T00:02:08;101384.22;;;17.55;78.70
81835;BME280;71272;52.166;4.498;2023-07-13T00:04:34;101382.06;;;17.42;78.89
81835;BME280;71272;52.166;4.498;2023-07-13T00:07:00;101379.31;;;17.39;80.11
81835;BME280;71272;52.166;4.498;2023-07-13T00:09:25;101381.16;;;17.45;78.30
81835;BME280;71272;52.166;4.498;2023-07-13T00:11:54;101379.97;;;17.46;77.88
81835;BME280;71272;52.166;4.498;2023-07-13T00:14:21;101377.41;;;17.52;77.76
81835;BME280;71272;52.166;4.498;2023-07-13T00:16:46;101384.00;;;17.45;77.97
81835;BME280;71272;52.166;4.498;2023-07-13T00:19:13;101386.69;;;17.52;78.01
81835;BME280;71272;52.166;4.498;2023-07-13T00:21:42;101389.69;;;17.45;78.27
81835;BME280;71272;52.166;4.498;2023-07-13T00:24:11;101393.41;;;17.42;78.51
81835;BME280;71272;52.166;4.498;2023-07-13T00:26:41;101393.41;;;17.42;78.29
81835;BME280;71272;52.166;4.498;2023-07-13T00:29:10;101387.81;;;17.39;78.72
81835;BME280;71272;52.166;4.498;2023-07-13T00:31:36;101395.16;;;17.36;78.33
81835;BME280;71272;52.166;4.498;2023-07-13T00:34:02;101390.34;;;17.33;79.37
81835;BME280;71272;52.166;4.498;2023-07-13T00:36:29;101396.81;;;17.34;79.33
81835;BME280;71272;52.166;4.498;2023-07-13T00:38:55;101398.63;;;17.44;78.68
81835;BME280;71272;52.166;4.498;2023-07-13T00:41:20;101407.84;;;17.48;79.09
81835;BME280;71272;52.166;4.498;2023-07-13T00:43:47;101408.59;;;17.52;78.50
81835;BME280;71272;52.166;4.498;2023-07-13T00:48:48;101396.59;;;17.44;78.62
81835;BME280;71272;52.166;4.498;2023-07-13T00:51:20;101392.19;;;17.43;78.31
81835;BME280;71272;52.166;4.498;2023-07-13T00:53:50;101389.41;;;17.40;78.42
81835;BME280;71272;52.166;4.498;2023-07-13T00:56:16;101393.16;;;17.13;79.39
81835;BME280;71272;52.166;4.498;2023-07-13T00:58:42;101392.44;;;17.09;78.74
81835;BME280;71272;52.166;4.498;2023-07-13T01:01:08;101398.19;;;17.05;79.46
81835;BME280;71272;52.166;4.498;2023-07-13T01:03:34;101394.31;;;16.96;79.42
81835;BME280;71272;52.166;4.498;2023-07-13T01:06:00;101400.94;;;16.89;79.25
81835;BME280;71272;52.166;4.498;2023-07-13T01:08:26;101397.28;;;16.89;79.01
81835;BME280;71272;52.166;4.498;2023-07-13T01:10:55;101401.38;;;16.88;78.97
81835;BME280;71272;52.166;4.498;2023-07-13T01:13:21;101411.09;;;16.86;78.97
81835;BME280;71272;52.166;4.498;2023-07-13T01:15:48;101400.13;;;16.89;78.57
81835;BME280;71272;52.166;4.498;2023-07-13T01:18:18;101406.66;;;16.85;78.89
81835;BME280;71272;52.166;4.498;2023-07-13T01:23:18;101406.28;;;16.60;78.53
81835;BME280;71272;52.166;4.498;2023-07-13T01:25:44;101398.47;;;16.44;79.21
81835;BME280;71272;52.166;4.498;2023-07-13T01:28:10;101405.53;;;16.56;78.64
81835;BME280;71272;52.166;4.498;2023-07-13T01:30:36;101411.72;;;16.51;78.99
81835;BME280;71272;52.166;4.498;2023-07-13T01:33:08;101407.25;;;16.50;78.38
81835;BME280;71272;52.166;4.498;2023-07-13T01:35:35;101410.47;;;16.52;78.56
81835;BME280;71272;52.166;4.498;2023-07-13T01:38:01;101416.75;;;16.63;78.49
81835;BME280;71272;52.166;4.498;2023-07-13T01:40:27;101422.09;;;16.57;78.39
81835;BME280;71272;52.166;4.498;2023-07-13T01:42:53;101417.22;;;16.58;78.80
81835;BME280;71272;52.166;4.498;2023-07-13T01:45:19;101419.81;;;16.49;78.67
81835;BME280;71272;52.166;4.498;2023-07-13T01:47:44;101413.09;;;16.39;79.21
81835;BME280;71272;52.166;4.498;2023-07-13T01:50:10;101418.75;;;16.39;79.58
81835;BME280;71272;52.166;4.498;2023-07-13T01:52:35;101417.25;;;16.34;79.83
81835;BME280;71272;52.166;4.498;2023-07-13T01:55:01;101426.47;;;16.38;79.22
81835;BME280;71272;52.166;4.498;2023-07-13T01:57:27;101428.13;;;16.36;79.62
81835;BME280;71272;52.166;4.498;2023-07-13T01:59:53;101423.06;;;16.24;80.14
81835;BME280;71272;52.166;4.498;2023-07-13T02:02:18;101423.81;;;16.28;80.19
81835;BME280;71272;52.166;4.498;2023-07-13T02:04:44;101431.44;;;16.04;80.92
81835;BME280;71272;52.166;4.498;2023-07-13T02:07:10;101439.41;;;15.85;81.69
81835;BME280;71272;52.166;4.498;2023-07-13T02:09:35;101429.75;;;15.79;82.73
81835;BME280;71272;52.166;4.498;2023-07-13T02:12:02;101432.97;;;15.81;82.94
81835;BME280;71272;52.166;4.498;2023-07-13T02:14:28;101439.75;;;15.87;82.98
81835;BME280;71272;52.166;4.498;2023-07-13T02:16:53;101439.03;;;15.83;83.19
81835;BME280;71272;52.166;4.498;2023-07-13T02:19:18;101436.19;;;15.83;83.61
81835;BME280;71272;52.166;4.498;2023-07-13T02:21:44;101445.47;;;15.84;83.59
81835;BME280;71272;52.166;4.498;2023-07-13T02:24:09;101437.75;;;15.88;83.60
81835;BME280;71272;52.166;4.498;2023-07-13T02:26:35;101442.97;;;15.89;83.72
81835;BME280;71272;52.166;4.498;2023-07-13T02:29:01;101443.03;;;15.86;83.77
81835;BME280;71272;52.166;4.498;2023-07-13T02:31:26;101436.25;;;15.80;84.33
81835;BME280;71272;52.166;4.498;2023-07-13T02:33:52;101433.91;;;15.71;84.79
81835;BME280;71272;52.166;4.498;2023-07-13T02:36:17;101438.81;;;15.67;85.12
81835;BME280;71272;52.166;4.498;2023-07-13T02:38:44;101436.19;;;15.49;86.24
81835;BME280;71272;52.166;4.498;2023-07-13T02:41:10;101432.63;;;15.45;86.64
81835;BME280;71272;52.166;4.498;2023-07-13T02:43:37;101436.63;;;15.47;86.34
81835;BME280;71272;52.166;4.498;2023-07-13T02:46:02;101432.91;;;15.54;86.43
81835;BME280;71272;52.166;4.498;2023-07-13T02:48:35;101427.97;;;15.62;85.84
81835;BME280;71272;52.166;4.498;2023-07-13T02:51:01;101440.00;;;15.66;86.10
81835;BME280;71272;52.166;4.498;2023-07-13T02:53:26;101446.00;;;15.75;85.81
81835;BME280;71272;52.166;4.498;2023-07-13T02:55:52;101437.41;;;15.82;85.63
81835;BME280;71272;52.166;4.498;2023-07-13T02:58:17;101437.16;;;16.00;84.75
81835;BME280;71272;52.166;4.498;2023-07-13T03:00:43;101429.75;;;16.10;84.78
81835;BME280;71272;52.166;4.498;2023-07-13T03:03:12;101442.28;;;16.09;84.99
81835;BME280;71272;52.166;4.498;2023-07-13T03:05:41;101436.69;;;16.05;84.91
81835;BME280;71272;52.166;4.498;2023-07-13T03:08:08;101437.72;;;16.15;85.13
81835;BME280;71272;52.166;4.498;2023-07-13T03:10:33;101447.41;;;16.17;84.55
81835;BME280;71272;52.166;4.498;2023-07-13T03:12:59;101451.53;;;16.13;85.93
81835;BME280;71272;52.166;4.498;2023-07-13T03:15:24;101456.34;;;16.16;85.73
81835;BME280;71272;52.166;4.498;2023-07-13T03:17:50;101449.91;;;16.12;85.87
81835;BME280;71272;52.166;4.498;2023-07-13T03:20:15;101447.13;;;16.08;86.45
81835;BME280;71272;52.166;4.498;2023-07-13T03:22:41;101443.75;;;15.90;87.39
81835;BME280;71272;52.166;4.498;2023-07-13T03:25:07;101447.75;;;15.92;88.09
81835;BME280;71272;52.166;4.498;2023-07-13T03:27:33;101449.81;;;15.92;88.55
81835;BME280;71272;52.166;4.498;2023-07-13T03:29:58;101442.50;;;15.94;88.32
81835;BME280;71272;52.166;4.498;2023-07-13T03:32:24;101450.97;;;15.94;88.80
81835;BME280;71272;52.166;4.498;2023-07-13T03:34:49;101446.19;;;15.91;89.45
81835;BME280;71272;52.166;4.498;2023-07-13T03:37:15;101447.75;;;15.92;89.72
81835;BME280;71272;52.166;4.498;2023-07-13T03:39:40;101450.88;;;16.02;89.21
81835;BME280;71272;52.166;4.498;2023-07-13T03:42:07;101454.94;;;16.01;89.79
81835;BME280;71272;52.166;4.498;2023-07-13T03:44:32;101450.66;;;16.16;90.02
81835;BME280;71272;52.166;4.498;2023-07-13T03:46:58;101451.41;;;16.20;89.29
81835;BME280;71272;52.166;4.498;2023-07-13T03:49:23;101459.22;;;16.12;90.09
81835;BME280;71272;52.166;4.498;2023-07-13T03:51:49;101452.47;;;16.03;90.91
81835;BME280;71272;52.166;4.498;2023-07-13T03:54:14;101450.88;;;16.02;91.16
81835;BME280;71272;52.166;4.498;2023-07-13T03:56:39;101454.53;;;15.98;91.20
81835;BME280;71272;52.166;4.498;2023-07-13T03:59:05;101452.41;;;16.06;91.29
81835;BME280;71272;52.166;4.498;2023-07-13T04:01:31;101454.41;;;16.09;91.53
81835;BME280;71272;52.166;4.498;2023-07-13T04:03:56;101445.44;;;16.14;91.17
81835;BME280;71272;52.166;4.498;2023-07-13T04:06:25;101457.81;;;16.24;91.11
81835;BME280;71272;52.166;4.498;2023-07-13T04:08:53;101459.81;;;16.27;90.96
81835;BME280;71272;52.166;4.498;2023-07-13T04:11:21;101468.13;;;16.38;90.47
81835;BME280;71272;52.166;4.498;2023-07-13T04:13:48;101458.34;;;16.42;90.21
81835;BME280;71272;52.166;4.498;2023-07-13T04:16:14;101464.25;;;16.52;90.10
81835;BME280;71272;52.166;4.498;2023-07-13T04:18:40;101465.69;;;16.63;89.29
81835;BME280;71272;52.166;4.498;2023-07-13T04:21:06;101462.97;;;16.83;88.17
81835;BME280;71272;52.166;4.498;2023-07-13T04:23:32;101459.69;;;16.85;88.15
81835;BME280;71272;52.166;4.498;2023-07-13T04:25:57;101467.19;;;16.95;87.62
81835;BME280;71272;52.166;4.498;2023-07-13T04:28:25;101470.94;;;16.89;88.07
81835;BME280;71272;52.166;4.498;2023-07-13T04:30:50;101469.66;;;16.93;87.72
81835;BME280;71272;52.166;4.498;2023-07-13T04:33:16;101475.13;;;17.04;87.13
81835;BME280;71272;52.166;4.498;2023-07-13T04:35:43;101475.00;;;17.11;86.69
81835;BME280;71272;52.166;4.498;2023-07-13T04:38:09;101474.53;;;17.16;86.20
81835;BME280;71272;52.166;4.498;2023-07-13T04:40:36;101479.66;;;17.21;86.54
81835;BME280;71272;52.166;4.498;2023-07-13T04:43:02;101477.56;;;17.25;85.87
81835;BME280;71272;52.166;4.498;2023-07-13T04:45:27;101484.84;;;17.26;85.84
81835;BME280;71272;52.166;4.498;2023-07-13T04:47:52;101479.53;;;17.28;85.25
81835;BME280;71272;52.166;4.498;2023-07-13T04:50:18;101490.00;;;17.31;85.18
81835;BME280;71272;52.166;4.498;2023-07-13T04:52:49;101499.59;;;17.38;84.66
81835;BME280;71272;52.166;4.498;2023-07-13T04:55:15;101490.97;;;17.45;84.76
81835;BME280;71272;52.166;4.498;2023-07-13T04:57:40;101495.75;;;17.48;84.47
81835;BME280;71272;52.166;4.498;2023-07-13T05:00:06;101497.72;;;17.51;84.18
81835;BME280;71272;52.166;4.498;2023-07-13T05:02:37;101492.59;;;17.66;83.31
81835;BME280;71272;52.166;4.498;2023-07-13T05:05:03;101500.88;;;17.96;81.98
81835;BME280;71272;52.166;4.498;2023-07-13T05:07:29;101505.75;;;18.32;80.97
81835;BME280;71272;52.166;4.498;2023-07-13T05:09:55;101508.88;;;18.54;79.39
81835;BME280;71272;52.166;4.498;2023-07-13T05:12:20;101507.66;;;18.72;78.66
81835;BME280;71272;52.166;4.498;2023-07-13T05:14:47;101508.91;;;19.03;77.78
81835;BME280;71272;52.166;4.498;2023-07-13T05:17:14;101514.94;;;19.22;76.71
81835;BME280;71272;52.166;4.498;2023-07-13T05:19:39;101516.97;;;19.21;76.21
81835;BME280;71272;52.166;4.498;2023-07-13T05:22:05;101523.25;;;19.45;74.64
81835;BME280;71272;52.166;4.498;2023-07-13T05:24:30;101517.03;;;19.34;75.12
81835;BME280;71272;52.166;4.498;2023-07-13T05:26:56;101527.19;;;19.64;73.88
81835;BME280;71272;52.166;4.498;2023-07-13T05:29:22;101528.03;;;19.78;72.82
81835;BME280;71272;52.166;4.498;2023-07-13T05:31:48;101530.84;;;23.13;62.02
81835;BME280;71272;52.166;4.498;2023-07-13T05:34:14;101535.09;;;22.99;61.31
81835;BME280;71272;52.166;4.498;2023-07-13T05:36:40;101538.78;;;21.40;66.82
81835;BME280;71272;52.166;4.498;2023-07-13T05:39:05;101533.78;;;20.58;69.29
81835;BME280;71272;52.166;4.498;2023-07-13T05:41:31;101533.44;;;20.69;68.20
81835;BME280;71272;52.166;4.498;2023-07-13T05:43:58;101546.13;;;24.02;57.60
81835;BME280;71272;52.166;4.498;2023-07-13T05:46:23;101540.50;;;25.25;53.99
81835;BME280;71272;52.166;4.498;2023-07-13T05:48:50;101543.16;;;26.37;49.64
81835;BME280;71272;52.166;4.498;2023-07-13T05:51:17;101546.19;;;24.44;54.38
81835;BME280;71272;52.166;4.498;2023-07-13T05:53:44;101551.97;;;23.06;58.65
81835;BME280;71272;52.166;4.498;2023-07-13T05:56:10;101542.84;;;21.95;63.39
81835;BME280;71272;52.166;4.498;2023-07-13T05:58:36;101561.88;;;21.20;65.74
81835;BME280;71272;52.166;4.498;2023-07-13T06:01:06;101548.38;;;21.68;63.61
81835;BME280;71272;52.166;4.498;2023-07-13T06:03:34;101556.53;;;22.23;61.41
81835;BME280;71272;52.166;4.498;2023-07-13T06:05:59;101555.16;;;21.61;63.52
81835;BME280;71272;52.166;4.498;2023-07-13T06:08:27;101557.84;;;21.43;64.41
81835;BME280;71272;52.166;4.498;2023-07-13T06:10:53;101560.13;;;23.54;57.76
81835;BME280;71272;52.166;4.498;2023-07-13T06:13:18;101563.91;;;24.24;55.26
81835;BME280;71272;52.166;4.498;2023-07-13T06:15:50;101576.47;;;25.60;51.40
81835;BME280;71272;52.166;4.498;2023-07-13T06:18:16;101580.78;;;25.16;52.09
81835;BME280;71272;52.166;4.498;2023-07-13T06:20:41;101586.06;;;25.57;50.97
81835;BME280;71272;52.166;4.498;2023-07-13T06:23:07;101584.78;;;25.34;49.75
81835;BME280;71272;52.166;4.498;2023-07-13T06:25:33;101584.41;;;26.63;47.05
81835;BME280;71272;52.166;4.498;2023-07-13T06:27:58;101589.69;;;25.81;48.77
81835;BME280;71272;52.166;4.498;2023-07-13T06:30:24;101580.78;;;24.74;51.16
81835;BME280;71272;52.166;4.498;2023-07-13T06:32:49;101583.50;;;24.77;51.71
81835;BME280;71272;52.166;4.498;2023-07-13T06:35:15;101583.66;;;25.07;51.00
81835;BME280;71272;52.166;4.498;2023-07-13T06:37:41;101587.16;;;25.98;47.63
81835;BME280;71272;52.166;4.498;2023-07-13T06:40:07;101577.03;;;26.77;45.31
81835;BME280;71272;52.166;4.498;2023-07-13T06:42:32;101581.59;;;27.19;43.24
81835;BME280;71272;52.166;4.498;2023-07-13T06:44:58;101597.69;;;29.62;38.48
81835;BME280;71272;52.166;4.498;2023-07-13T06:47:23;101590.59;;;29.04;37.68
81835;BME280;71272;52.166;4.498;2023-07-13T06:49:48;101596.44;;;27.73;41.53
81835;BME280;71272;52.166;4.498;2023-07-13T06:52:14;101589.63;;;29.18;38.08
81835;BME280;71272;52.166;4.498;2023-07-13T06:54:43;101593.16;;;27.80;40.43
81835;BME280;71272;52.166;4.498;2023-07-13T06:57:09;101592.28;;;27.54;40.99
81835;BME280;71272;52.166;4.498;2023-07-13T06:59:35;101598.41;;;28.97;39.41
81835;BME280;71272;52.166;4.498;2023-07-13T07:02:01;101603.16;;;28.11;39.14
81835;BME280;71272;52.166;4.498;2023-07-13T07:04:27;101594.59;;;27.14;41.23
81835;BME280;71272;52.166;4.498;2023-07-13T07:06:54;101608.09;;;26.88;41.78
81835;BME280;71272;52.166;4.498;2023-07-13T07:09:19;101601.72;;;26.98;41.89
81835;BME280;71272;52.166;4.498;2023-07-13T07:11:45;101608.69;;;26.32;42.51
81835;BME280;71272;52.166;4.498;2023-07-13T07:14:10;101607.41;;;26.19;44.18
81835;BME280;71272;52.166;4.498;2023-07-13T07:16:40;101612.00;;;25.14;47.56
81835;BME280;71272;52.166;4.498;2023-07-13T07:19:05;101599.94;;;23.79;50.52
81835;BME280;71272;52.166;4.498;2023-07-13T07:21:30;101608.59;;;23.30;53.07
81835;BME280;71272;52.166;4.498;2023-07-13T07:23:57;101609.19;;;22.75;55.16
81835;BME280;71272;52.166;4.498;2023-07-13T07:26:25;101607.44;;;23.77;52.41
81835;BME280;71272;52.166;4.498;2023-07-13T07:28:57;101612.31;;;25.64;47.44
81835;BME280;71272;52.166;4.498;2023-07-13T07:31:23;101614.06;;;26.25;43.24
81835;BME280;71272;52.166;4.498;2023-07-13T07:33:48;101612.34;;;28.67;37.75
81835;BME280;71272;52.166;4.498;2023-07-13T07:36:15;101626.84;;;30.58;33.12
81835;BME280;71272;52.166;4.498;2023-07-13T07:38:43;101625.41;;;31.55;31.26
81835;BME280;71272;52.166;4.498;2023-07-13T07:41:09;101626.56;;;31.12;31.03
81835;BME280;71272;52.166;4.498;2023-07-13T07:43:35;101631.84;;;30.35;32.00
81835;BME280;71272;52.166;4.498;2023-07-13T07:46:01;101630.63;;;29.82;33.80
81835;BME280;71272;52.166;4.498;2023-07-13T07:48:26;101632.84;;;31.28;31.62
81835;BME280;71272;52.166;4.498;2023-07-13T07:50:52;101631.34;;;29.11;35.09
81835;BME280;71272;52.166;4.498;2023-07-13T07:53:17;101641.44;;;28.95;35.86
81835;BME280;71272;52.166;4.498;2023-07-13T07:55:42;101637.59;;;28.78;37.19
81835;BME280;71272;52.166;4.498;2023-07-13T07:58:08;101635.09;;;29.29;35.73
81835;BME280;71272;52.166;4.498;2023-07-13T08:00:35;101628.38;;;28.68;37.26
81835;BME280;71272;52.166;4.498;2023-07-13T08:03:01;101641.59;;;30.60;34.02
81835;BME280;71272;52.166;4.498;2023-07-13T08:05:26;101642.31;;;31.34;32.54
81835;BME280;71272;52.166;4.498;2023-07-13T08:07:51;101646.16;;;28.98;37.18
81835;BME280;71272;52.166;4.498;2023-07-13T08:10:17;101644.63;;;29.95;36.07
81835;BME280;71272;52.166;4.498;2023-07-13T08:12:43;101642.53;;;27.73;40.07
81835;BME280;71272;52.166;4.498;2023-07-13T08:15:13;101647.56;;;25.89;45.01
81835;BME280;71272;52.166;4.498;2023-07-13T08:17:40;101644.63;;;26.67;44.12
81835;BME280;71272;52.166;4.498;2023-07-13T08:20:08;101639.16;;;27.34;42.62
81835;BME280;71272;52.166;4.498;2023-07-13T08:22:36;101641.03;;;26.42;44.93
81835;BME280;71272;52.166;4.498;2023-07-13T08:25:02;101645.34;;;27.88;42.36
81835;BME280;71272;52.166;4.498;2023-07-13T08:27:28;101643.78;;;28.97;39.77
81835;BME280;71272;52.166;4.498;2023-07-13T08:29:53;101640.84;;;29.66;37.42
81835;BME280;71272;52.166;4.498;2023-07-13T08:32:20;101649.19;;;31.36;34.68
81835;BME280;71272;52.166;4.498;2023-07-13T08:34:50;101642.66;;;31.94;33.75
81835;BME280;71272;52.166;4.498;2023-07-13T08:37:17;101653.72;;;30.64;34.75
81835;BME280;71272;52.166;4.498;2023-07-13T08:39:42;101656.59;;;30.59;34.10
81835;BME280;71272;52.166;4.498;2023-07-13T08:44:55;101651.84;;;31.12;33.19
81835;BME280;71272;52.166;4.498;2023-07-13T08:47:27;101652.44;;;29.77;35.52
81835;BME280;71272;52.166;4.498;2023-07-13T08:49:53;101654.69;;;29.13;36.53
81835;BME280;71272;52.166;4.498;2023-07-13T08:52:35;101657.34;;;29.17;37.89
81835;BME280;71272;52.166;4.498;2023-07-13T08:57:37;101654.47;;;32.02;32.97
81835;BME280;71272;52.166;4.498;2023-07-13T09:00:08;101654.94;;;31.53;32.84
81835;BME280;71272;52.166;4.498;2023-07-13T09:02:42;101650.28;;;30.43;34.47
81835;BME280;71272;52.166;4.498;2023-07-13T09:05:17;101654.81;;;31.81;32.57
81835;BME280;71272;52.166;4.498;2023-07-13T09:10:52;101662.34;;;30.47;34.43
81835;BME280;71272;52.166;4.498;2023-07-13T09:15:55;101654.25;;;31.02;34.29
81835;BME280;71272;52.166;4.498;2023-07-13T09:18:28;101664.09;;;29.46;36.97
81835;BME280;71272;52.166;4.498;2023-07-13T09:23:57;101664.78;;;30.83;33.23
81835;BME280;71272;52.166;4.498;2023-07-13T09:26:28;101674.22;;;31.17;33.87
81835;BME280;71272;52.166;4.498;2023-07-13T09:29:03;101662.91;;;31.19;33.31
81835;BME280;71272;52.166;4.498;2023-07-13T09:31:37;101678.16;;;31.25;34.18
81835;BME280;71272;52.166;4.498;2023-07-13T09:34:09;101681.94;;;29.44;37.29
81835;BME280;71272;52.166;4.498;2023-07-13T09:36:35;101670.38;;;29.98;36.25
81835;BME280;71272;52.166;4.498;2023-07-13T09:39:15;101677.34;;;30.23;35.05
81835;BME280;71272;52.166;4.498;2023-07-13T09:42:17;101677.19;;;29.41;37.81
81835;BME280;71272;52.166;4.498;2023-07-13T09:44:58;101686.94;;;27.81;40.73
81835;BME280;71272;52.166;4.498;2023-07-13T09:47:28;101680.53;;;28.96;38.58
81835;BME280;71272;52.166;4.498;2023-07-13T09:50:06;101682.13;;;30.66;34.82
81835;BME280;71272;52.166;4.498;2023-07-13T09:52:49;101691.16;;;32.41;31.07
81835;BME280;71272;52.166;4.498;2023-07-13T09:55:34;101683.75;;;32.45;31.21
81835;BME280;71272;52.166;4.498;2023-07-13T09:58:17;101689.03;;;33.87;29.15
81835;BME280;71272;52.166;4.498;2023-07-13T10:01:08;101701.72;;;32.49;31.27
81835;BME280;71272;52.166;4.498;2023-07-13T10:03:35;101714.53;;;30.81;33.92
81835;BME280;71272;52.166;4.498;2023-07-13T10:06:14;101707.22;;;28.86;36.58
81835;BME280;71272;52.166;4.498;2023-07-13T10:08:40;101712.91;;;29.81;34.88
81835;BME280;71272;52.166;4.498;2023-07-13T10:11:18;101707.25;;;29.17;35.88
81835;BME280;71272;52.166;4.498;2023-07-13T10:13:46;101714.78;;;28.83;36.67
81835;BME280;71272;52.166;4.498;2023-07-13T10:16:14;101720.66;;;27.96;39.18
81835;BME280;71272;52.166;4.498;2023-07-13T10:18:50;101722.88;;;28.06;38.65
81835;BME280;71272;52.166;4.498;2023-07-13T10:21:20;101726.94;;;27.94;39.11
81835;BME280;71272;52.166;4.498;2023-07-13T10:23:58;101722.19;;;29.16;36.76
81835;BME280;71272;52.166;4.498;2023-07-13T10:26:32;101737.38;;;28.85;37.36
81835;BME280;71272;52.166;4.498;2023-07-13T10:29:04;101741.59;;;28.37;38.29
81835;BME280;71272;52.166;4.498;2023-07-13T10:31:34;101746.31;;;29.88;35.29
81835;BME280;71272;52.166;4.498;2023-07-13T10:34:02;101739.94;;;28.10;38.50
81835;BME280;71272;52.166;4.498;2023-07-13T10:36:30;101750.13;;;28.46;38.61
81835;BME280;71272;52.166;4.498;2023-07-13T10:38:57;101745.66;;;27.84;39.60
81835;BME280;71272;52.166;4.498;2023-07-13T10:41:26;101747.72;;;28.97;37.31
81835;BME280;71272;52.166;4.498;2023-07-13T10:43:55;101742.41;;;28.17;39.45
81835;BME280;71272;52.166;4.498;2023-07-13T10:46:27;101741.34;;;28.61;38.95
81835;BME280;71272;52.166;4.498;2023-07-13T10:49:02;101730.25;;;30.46;34.83
81835;BME280;71272;52.166;4.498;2023-07-13T10:51:30;101756.75;;;29.36;36.19
81835;BME280;71272;52.166;4.498;2023-07-13T10:54:41;101756.00;;;28.84;37.06
81835;BME280;71272;52.166;4.498;2023-07-13T10:57:14;101756.38;;;29.23;36.27
81835;BME280;71272;52.166;4.498;2023-07-13T10:59:42;101758.03;;;29.67;35.48
81835;BME280;71272;52.166;4.498;2023-07-13T11:02:27;101761.72;;;29.73;35.97
81835;BME280;71272;52.166;4.498;2023-07-13T11:04:55;101756.63;;;30.82;34.24
81835;BME280;71272;52.166;4.498;2023-07-13T11:07:28;101767.97;;;30.86;33.80
81835;BME280;71272;52.166;4.498;2023-07-13T11:09:56;101761.56;;;30.48;34.53
81835;BME280;71272;52.166;4.498;2023-07-13T11:17:53;101754.66;;;28.32;38.17
81835;BME280;71272;52.166;4.498;2023-07-13T11:20:31;101747.59;;;28.33;38.91
81835;BME280;71272;52.166;4.498;2023-07-13T11:25:38;101748.31;;;28.75;38.28
81835;BME280;71272;52.166;4.498;2023-07-13T11:28:06;101756.75;;;27.56;39.50
81835;BME280;71272;52.166;4.498;2023-07-13T11:30:37;101757.81;;;26.93;40.84
81835;BME280;71272;52.166;4.498;2023-07-13T11:35:51;101757.25;;;29.03;37.39
81835;BME280;71272;52.166;4.498;2023-07-13T11:38:45;101755.03;;;28.66;37.83
81835;BME280;71272;52.166;4.498;2023-07-13T11:41:31;101752.00;;;28.49;38.47
81835;BME280;71272;52.166;4.498;2023-07-13T11:44:18;101755.75;;;27.59;41.31
81835;BME280;71272;52.166;4.498;2023-07-13T11:46:49;101766.22;;;26.67;43.87
81835;BME280;71272;52.166;4.498;2023-07-13T11:49:21;101760.22;;;26.41;44.43
81835;BME280;71272;52.166;4.498;2023-07-13T11:51:47;101757.84;;;25.67;47.40
81835;BME280;71272;52.166;4.498;2023-07-13T11:54:34;101767.88;;;25.39;47.64
81835;BME280;71272;52.166;4.498;2023-07-13T12:00:13;101775.44;;;25.60;47.00
81835;BME280;71272;52.166;4.498;2023-07-13T12:02:43;101768.38;;;25.28;48.04
81835;BME280;71272;52.166;4.498;2023-07-13T12:05:11;101776.28;;;25.42;47.58
81835;BME280;71272;52.166;4.498;2023-07-13T12:07:38;101768.19;;;24.71;48.74
81835;BME280;71272;52.166;4.498;2023-07-13T12:12:46;101779.03;;;24.76;48.77
81835;BME280;71272;52.166;4.498;2023-07-13T12:15:13;101768.34;;;24.21;50.60
81835;BME280;71272;52.166;4.498;2023-07-13T12:17:38;101771.22;;;24.76;49.76
81835;BME280;71272;52.166;4.498;2023-07-13T12:20:24;101767.47;;;25.03;48.36
81835;BME280;71272;52.166;4.498;2023-07-13T12:22:51;101777.75;;;24.40;48.76
81835;BME280;71272;52.166;4.498;2023-07-13T12:25:17;101774.38;;;23.96;49.92
81835;BME280;71272;52.166;4.498;2023-07-13T12:27:49;101771.88;;;24.44;49.84
81835;BME280;71272;52.166;4.498;2023-07-13T12:30:30;101777.75;;;24.40;49.37
81835;BME280;71272;52.166;4.498;2023-07-13T12:33:07;101772.47;;;24.38;48.49
81835;BME280;71272;52.166;4.498;2023-07-13T12:35:42;101773.47;;;24.54;50.13
81835;BME280;71272;52.166;4.498;2023-07-13T12:38:10;101770.72;;;24.87;49.25
81835;BME280;71272;52.166;4.498;2023-07-13T12:40:36;101773.94;;;24.62;49.78
81835;BME280;71272;52.166;4.498;2023-07-13T12:43:03;101781.56;;;24.09;49.75
81835;BME280;71272;52.166;4.498;2023-07-13T12:45:32;101774.38;;;23.96;50.52
81835;BME280;71272;52.166;4.498;2023-07-13T12:48:10;101769.56;;;23.83;49.13
81835;BME280;71272;52.166;4.498;2023-07-13T12:50:45;101766.06;;;23.98;50.38
81835;BME280;71272;52.166;4.498;2023-07-13T12:53:20;101775.00;;;24.00;50.64
81835;BME280;71272;52.166;4.498;2023-07-13T12:55:48;101777.22;;;23.96;50.38
81835;BME280;71272;52.166;4.498;2023-07-13T12:58:37;101779.16;;;23.99;51.38
81835;BME280;71272;52.166;4.498;2023-07-13T13:01:04;101779.47;;;24.10;52.33
81835;BME280;71272;52.166;4.498;2023-07-13T13:03:35;101778.81;;;24.06;50.83
81835;BME280;71272;52.166;4.498;2023-07-13T13:06:20;101783.91;;;24.02;50.85
81835;BME280;71272;52.166;4.498;2023-07-13T13:08:48;101779.94;;;23.90;50.08
81835;BME280;71272;52.166;4.498;2023-07-13T13:11:15;101795.56;;;23.67;52.05
81835;BME280;71272;52.166;4.498;2023-07-13T13:13:41;101790.84;;;23.73;52.76
81835;BME280;71272;52.166;4.498;2023-07-13T13:18:54;101790.91;;;23.51;52.83
81835;BME280;71272;52.166;4.498;2023-07-13T13:21:23;101807.09;;;23.45;52.98
81835;BME280;71272;52.166;4.498;2023-07-13T13:23:49;101799.44;;;23.42;52.65
81835;BME280;71272;52.166;4.498;2023-07-13T13:26:16;101795.47;;;23.39;53.72
81835;BME280;71272;52.166;4.498;2023-07-13T13:28:43;101805.16;;;23.33;53.37
81835;BME280;71272;52.166;4.498;2023-07-13T13:31:13;101797.97;;;23.28;54.04
81835;BME280;71272;52.166;4.498;2023-07-13T13:33:42;101794.56;;;23.20;52.84
81835;BME280;71272;52.166;4.498;2023-07-13T13:36:14;101801.16;;;23.30;53.54